Rechercher aéroport 
image banner adimage banner adimage banner ad
image banner ad

L65 - Perris Valley

Situé à Perris, United States

ICAO - L65, IATA -

Données fournies par Airmate  

Information générale

Coordonnées: N33°45'53" W117°13'8"
Élévation : 1413 feet MSL.
Variation magnétique : 14° East
Voir autres Aéroports à California

Données opérationnelles

Special qualification required
Heure actuelle UTC:
Heure actuelle locale:
Météo à : KRIV - March Arb ( 14 km )
METAR: KRIV 020558Z AUTO 25004KT 10SM CLR 25/05 A3007 RMK AO2 SLP166 T02510053 10351 20237 51011
TAF: TAF KRIV 020410Z 0204/0310 VRB04KT 9999 SKC QNH3005INS BECMG 0219/0220 31009KT 9999 FEW120 510005 QNH2995INS TEMPO 0221/0302 31012G20KT BECMG 0304/0305 VRB04KT 9999 SKC QNH2999INS TX38/0222Z TN16/0213Z
Voir NOTAMs / SUP AIP / TFR affectant cet aéroport [VIEW]
Fréquences de communication: [VIEW]

Pistes:

Identifiant RWYQFULongueur (ft)Largeur (ft)SurfaceLDA (ft)
15510050ASPH
33510050ASPH

Coordonnées de l'aéroport

Adresse: Perris United States

Vue satellite de L65